createdAt,value
2022-11-24T00:01:25.247Z,21.20
2022-11-24T00:06:24.737Z,23.40
2022-11-24T00:11:26.227Z,24.20
2022-11-24T00:16:28.250Z,25.40
2022-11-24T00:21:30.131Z,24.00
2022-11-24T00:26:32.235Z,19.10
2022-11-24T00:31:34.623Z,16.40
2022-11-24T00:36:35.744Z,20.40
2022-11-24T00:41:35.783Z,21.10
2022-11-24T00:46:35.611Z,27.30
2022-11-24T00:51:35.437Z,21.10
2022-11-24T00:56:35.115Z,22.00
2022-11-24T01:01:34.990Z,23.50
2022-11-24T01:06:36.033Z,25.10
2022-11-24T01:11:51.179Z,24.80
2022-11-24T01:16:50.597Z,18.50
2022-11-24T01:21:50.359Z,19.50
2022-11-24T01:26:49.972Z,23.70
2022-11-24T01:31:49.312Z,17.80
2022-11-24T01:36:49.029Z,19.80
2022-11-24T01:41:48.027Z,19.00
2022-11-24T01:46:50.597Z,19.50
2022-11-24T01:51:57.087Z,20.90
2022-11-24T01:57:00.155Z,14.00
2022-11-24T02:02:01.889Z,22.50
2022-11-24T02:07:04.905Z,16.10
2022-11-24T02:12:05.438Z,17.90
2022-11-24T02:17:04.866Z,16.10
2022-11-24T02:22:05.349Z,16.10
2022-11-24T02:27:04.191Z,18.10
2022-11-24T02:32:08.963Z,21.00
2022-11-24T02:37:08.431Z,23.20
2022-11-24T02:42:11.916Z,17.00
2022-11-24T02:47:39.791Z,14.70
2022-11-24T02:52:39.369Z,13.20
2022-11-24T02:57:38.660Z,14.20
2022-11-24T03:02:37.852Z,14.10
2022-11-24T03:07:36.466Z,17.90
2022-11-24T03:12:35.194Z,16.10
2022-11-24T03:17:34.620Z,18.80
2022-11-24T03:22:33.574Z,14.30
2022-11-24T03:27:33.569Z,16.30
2022-11-24T03:32:32.549Z,14.20
2022-11-24T03:37:31.797Z,18.60
2022-11-24T03:42:31.741Z,14.50
2022-11-24T03:47:30.394Z,13.80
2022-11-24T03:52:29.979Z,13.30
2022-11-24T03:57:29.134Z,16.20
2022-11-24T04:02:28.029Z,16.90
2022-11-24T04:07:27.581Z,16.10
2022-11-24T04:12:44.463Z,14.20
2022-11-24T04:17:44.470Z,14.40
2022-11-24T04:22:44.460Z,12.90
2022-11-24T04:27:44.462Z,16.20
2022-11-24T04:32:44.085Z,14.20
2022-11-24T04:37:43.554Z,14.00
2022-11-24T04:42:43.123Z,15.60
2022-11-24T04:47:42.796Z,13.90
2022-11-24T04:52:42.131Z,14.70
2022-11-24T04:57:40.779Z,16.00
2022-11-24T05:02:40.248Z,18.20
2022-11-24T05:07:39.913Z,19.70
2022-11-24T05:12:39.889Z,14.40
2022-11-24T05:17:41.549Z,16.50
2022-11-24T05:22:41.102Z,15.70
2022-11-24T05:27:40.584Z,12.20
2022-11-24T05:32:40.091Z,20.20
2022-11-24T05:37:39.253Z,16.00
2022-11-24T05:42:47.852Z,18.00
2022-11-24T05:47:47.984Z,14.20
2022-11-24T05:52:47.180Z,16.30
2022-11-24T05:57:46.625Z,12.60
2022-11-24T06:02:45.524Z,15.30
2022-11-24T06:07:44.525Z,17.80
2022-11-24T06:12:44.021Z,17.30
2022-11-24T06:17:43.535Z,13.20
2022-11-24T06:22:42.959Z,17.80
2022-11-24T06:27:42.233Z,18.60
2022-11-24T06:32:49.286Z,16.90
2022-11-24T06:37:49.620Z,17.70
2022-11-24T06:42:55.263Z,13.90
2022-11-24T06:47:56.364Z,16.50
2022-11-24T06:53:20.586Z,15.90
2022-11-24T06:58:19.970Z,14.90
2022-11-24T07:03:22.829Z,14.70
2022-11-24T07:08:21.922Z,17.70
2022-11-24T07:13:21.166Z,16.00
2022-11-24T07:18:20.074Z,19.80
2022-11-24T07:23:19.266Z,17.30
2022-11-24T07:28:17.691Z,16.20
2022-11-24T07:33:20.865Z,14.40
2022-11-24T07:38:19.832Z,15.10
2022-11-24T07:43:21.605Z,17.20
2022-11-24T07:48:21.001Z,11.50
2022-11-24T07:53:20.651Z,15.30
2022-11-24T07:58:19.714Z,15.00
2022-11-24T08:03:19.121Z,10.10
2022-11-24T08:08:18.525Z,11.00
2022-11-24T08:13:17.216Z,13.30
2022-11-24T08:18:16.330Z,14.20
2022-11-24T08:23:14.594Z,14.40
2022-11-24T08:28:13.927Z,12.90
2022-11-24T08:33:13.026Z,12.10
2022-11-24T08:38:11.660Z,17.00
2022-11-24T08:43:10.637Z,13.00
2022-11-24T08:48:10.238Z,16.60
2022-11-24T08:53:09.053Z,17.90
2022-11-24T08:58:08.371Z,12.60
2022-11-24T09:03:07.445Z,11.50
2022-11-24T09:08:06.834Z,15.40
2022-11-24T09:13:06.225Z,15.90
2022-11-24T09:18:05.516Z,19.30
2022-11-24T09:23:04.627Z,13.60
2022-11-24T09:28:03.802Z,16.50
2022-11-24T09:33:03.425Z,14.80
2022-11-24T09:38:02.763Z,19.60
2022-11-24T09:43:10.529Z,15.80
2022-11-24T09:48:18.486Z,13.40
2022-11-24T09:53:28.566Z,24.40
2022-11-24T09:58:41.761Z,17.20
2022-11-24T10:03:45.510Z,20.70
2022-11-24T10:09:11.605Z,18.40
2022-11-24T10:14:55.280Z,15.90
2022-11-24T10:20:04.534Z,17.70
2022-11-24T10:25:19.986Z,15.70
2022-11-24T10:30:24.951Z,14.50
2022-11-24T10:35:29.490Z,13.40
2022-11-24T10:46:11.036Z,19.60
2022-11-24T10:51:43.088Z,16.30
2022-11-24T10:56:46.534Z,19.90
2022-11-24T11:01:45.430Z,13.30
2022-11-24T11:06:46.923Z,24.30
2022-11-24T11:11:48.488Z,17.00
2022-11-24T11:16:54.664Z,14.00
2022-11-24T11:22:04.978Z,16.40
2022-11-24T11:27:18.456Z,14.70
2022-11-24T11:37:47.101Z,17.60
2022-11-24T11:43:02.559Z,14.20
2022-11-24T11:48:26.482Z,17.80
2022-11-24T11:53:37.423Z,17.60
2022-11-24T11:59:26.077Z,20.70
2022-11-24T12:04:43.120Z,10.90
2022-11-24T12:10:05.123Z,16.00
2022-11-24T12:15:15.591Z,14.00
2022-11-24T12:20:43.686Z,12.80
2022-11-24T12:25:49.715Z,14.20
2022-11-24T12:31:05.819Z,12.60
2022-11-24T12:36:17.944Z,15.80
2022-11-24T12:41:42.663Z,12.80
2022-11-24T12:46:54.182Z,14.40
2022-11-24T12:52:01.390Z,16.40
2022-11-24T12:57:10.780Z,16.90
2022-11-24T13:02:25.029Z,14.60
2022-11-24T13:07:39.173Z,15.40
2022-11-24T13:12:56.381Z,19.40
2022-11-24T13:18:08.609Z,19.90
2022-11-24T13:23:28.572Z,18.80
2022-11-24T13:29:30.882Z,13.80
2022-11-24T13:35:13.556Z,16.70
2022-11-24T13:41:06.218Z,19.80
2022-11-24T13:46:05.123Z,17.90
2022-11-24T13:51:27.938Z,17.60
2022-11-24T13:56:32.306Z,17.60
2022-11-24T14:01:34.376Z,16.00
2022-11-24T14:06:39.496Z,19.90
2022-11-24T14:11:38.403Z,15.90
2022-11-24T14:16:37.145Z,17.00
2022-11-24T14:21:41.647Z,20.80
2022-11-24T14:26:43.127Z,17.60
2022-11-24T14:31:42.888Z,16.10
2022-11-24T14:36:42.371Z,20.40
2022-11-24T14:41:42.304Z,25.60
2022-11-24T14:46:42.225Z,20.80
2022-11-24T14:51:47.768Z,20.50
2022-11-24T14:57:00.502Z,21.60
2022-11-24T15:02:01.208Z,21.20
2022-11-24T15:07:20.054Z,21.00
2022-11-24T15:12:29.368Z,27.40
2022-11-24T15:17:32.195Z,20.30
2022-11-24T15:22:45.589Z,18.90
2022-11-24T15:27:44.851Z,22.70
2022-11-24T15:32:54.384Z,28.20
2022-11-24T15:37:53.603Z,31.90
2022-11-24T15:42:56.078Z,30.40
2022-11-24T15:47:55.328Z,19.50
2022-11-24T15:52:54.581Z,28.00
2022-11-24T15:57:53.363Z,32.10
2022-11-24T16:02:52.879Z,27.10
2022-11-24T16:07:52.768Z,24.50
2022-11-24T16:12:52.331Z,26.40
2022-11-24T16:17:51.734Z,36.90
2022-11-24T16:22:50.758Z,43.20
2022-11-24T16:27:50.155Z,24.00
2022-11-24T16:32:50.537Z,41.20
2022-11-24T16:37:49.741Z,23.20
2022-11-24T16:42:48.870Z,25.80
2022-11-24T16:47:48.304Z,23.80
2022-11-24T16:52:48.679Z,26.00
2022-11-24T16:57:48.822Z,26.20
2022-11-24T17:02:48.529Z,28.60
2022-11-24T17:07:49.378Z,34.40
2022-11-24T17:12:48.350Z,30.40
2022-11-24T17:18:16.246Z,31.70
2022-11-24T17:23:09.322Z,28.00
2022-11-24T17:28:09.292Z,39.30
2022-11-24T17:33:08.114Z,34.70
2022-11-24T17:38:08.440Z,27.30
2022-11-24T17:43:08.634Z,29.60
2022-11-24T17:48:08.595Z,32.10
2022-11-24T17:53:07.784Z,27.40
2022-11-24T17:58:06.778Z,29.20
2022-11-24T18:03:05.966Z,27.40
2022-11-24T18:08:06.504Z,34.30
2022-11-24T18:13:05.764Z,33.70
2022-11-24T18:18:05.399Z,34.70
2022-11-24T18:23:06.074Z,34.00
2022-11-24T18:28:05.973Z,35.60
2022-11-24T18:33:05.120Z,31.10
2022-11-24T18:38:04.532Z,34.00
2022-11-24T18:43:03.807Z,24.90
2022-11-24T18:48:03.249Z,34.90
2022-11-24T18:53:03.364Z,22.60
2022-11-24T18:58:02.390Z,36.90
2022-11-24T19:03:01.718Z,41.30
2022-11-24T19:08:02.085Z,26.30
2022-11-24T19:13:36.266Z,48.80
2022-11-24T19:18:35.951Z,28.40
2022-11-24T19:23:35.502Z,44.30
2022-11-24T19:28:35.184Z,21.60
2022-11-24T19:33:35.379Z,42.00
2022-11-24T19:38:36.913Z,31.50
2022-11-24T19:43:38.173Z,50.00
2022-11-24T19:48:40.293Z,25.70
2022-11-24T19:53:39.870Z,14.80
2022-11-24T19:58:39.509Z,23.60
2022-11-24T20:03:39.377Z,38.90
2022-11-24T20:08:40.231Z,49.70
2022-11-24T20:13:41.884Z,51.00
2022-11-24T20:18:44.085Z,47.40
2022-11-24T20:23:44.780Z,43.40
2022-11-24T20:28:45.005Z,49.50
2022-11-24T20:33:45.031Z,41.40
2022-11-24T20:38:46.138Z,36.70
2022-11-24T20:43:59.957Z,34.80
2022-11-24T20:49:01.325Z,38.40
2022-11-24T20:54:03.806Z,28.90
2022-11-24T20:59:11.713Z,37.30
2022-11-24T21:04:14.329Z,43.90
2022-11-24T21:09:14.111Z,30.70
2022-11-24T21:14:13.949Z,34.00
2022-11-24T21:19:17.752Z,35.20
2022-11-24T21:24:21.854Z,23.60
2022-11-24T21:29:23.681Z,25.40
2022-11-24T21:34:23.813Z,29.50
2022-11-24T21:39:23.243Z,26.00
2022-11-24T21:44:23.238Z,27.30
2022-11-24T21:49:22.930Z,42.60
2022-11-24T21:54:23.773Z,31.30
2022-11-24T21:59:24.767Z,38.00
2022-11-24T22:04:24.157Z,35.70
2022-11-24T22:09:23.851Z,23.80
2022-11-24T22:14:23.054Z,42.00
2022-11-24T22:19:22.432Z,45.60
2022-11-24T22:24:26.961Z,43.00
2022-11-24T22:29:26.760Z,33.40
2022-11-24T22:34:25.663Z,39.10
2022-11-24T22:39:24.985Z,31.30
2022-11-24T22:44:24.421Z,40.80
2022-11-24T22:49:24.066Z,27.40
2022-11-24T22:54:23.653Z,48.70
2022-11-24T22:59:22.260Z,43.20
2022-11-24T23:04:21.466Z,43.50
2022-11-24T23:09:24.673Z,41.40
2022-11-24T23:14:24.242Z,43.70
2022-11-24T23:19:23.541Z,28.20
2022-11-24T23:24:22.984Z,24.70
2022-11-24T23:29:22.564Z,35.50
2022-11-24T23:34:24.104Z,42.90
2022-11-24T23:39:23.838Z,19.30
2022-11-24T23:44:23.334Z,38.70
2022-11-24T23:49:22.771Z,48.90
2022-11-24T23:54:21.726Z,30.40
2022-11-24T23:59:20.720Z,43.90
